Time;durP1;ratioP1;P1;durP2;ratioP2;P2;SDS_P1;SDS_P2;PMS_P1;PMS_P2;Temp;Humidity;BMP_temperature;BMP_pressure;BME280_temperature;BME280_humidity;BME280_pressure;Samples;Min_cycle;Max_cycle;Signal;HPM_P1;HPM_P2
2021/03/28 00:02:02;;;;;;;5.07;1.15;;;;;;;15.64;80.28;102607.50;5038905;28;20053;-65
2021/03/28 00:04:28;;;;;;;5.90;1.33;;;;;;;15.62;80.19;102604.88;5041684;28;20117;-65
2021/03/28 00:07:00;;;;;;;3.95;1.35;;;;;;;15.62;79.80;102599.53;5038022;28;20128;-65
2021/03/28 00:09:33;;;;;;;4.13;0.82;;;;;;;15.58;80.17;102597.91;5035922;28;20029;-64
2021/03/28 00:12:37;;;;;;;7.18;1.25;;;;;;;15.58;80.49;102600.56;5035955;28;20091;-65
2021/03/28 00:15:08;;;;;;;4.82;1.17;;;;;;;15.54;80.58;102589.16;5037349;28;20043;-65
2021/03/28 00:17:39;;;;;;;1.77;0.90;;;;;;;15.55;80.37;102584.69;5041280;28;20028;-64
2021/03/28 00:20:14;;;;;;;5.15;1.88;;;;;;;15.50;80.78;102594.66;5038185;28;20049;-65
2021/03/28 00:22:43;;;;;;;6.93;1.52;;;;;;;15.50;80.69;102594.66;5039456;28;20037;-64
2021/03/28 00:25:18;;;;;;;4.82;1.10;;;;;;;15.44;80.80;102589.56;5026874;28;20036;-65
2021/03/28 00:27:53;;;;;;;5.60;1.13;;;;;;;15.47;80.74;102587.66;5037979;28;20100;-65
2021/03/28 00:30:25;;;;;;;4.60;1.60;;;;;;;15.44;81.71;102597.56;5040547;28;20112;-63
2021/03/28 00:33:15;;;;;;;8.25;2.22;;;;;;;15.46;82.39;102596.59;5038340;28;20530;-63
2021/03/28 00:35:46;;;;;;;5.75;1.30;;;;;;;15.45;82.20;102594.81;5043611;28;20029;-63
2021/03/28 00:38:19;;;;;;;3.00;1.00;;;;;;;15.39;82.41;102595.06;5038893;28;20052;-64
2021/03/28 00:41:00;;;;;;;2.45;1.02;;;;;;;15.38;82.20;102596.00;5037517;28;20103;-63
2021/03/28 00:43:27;;;;;;;2.80;1.00;;;;;;;15.41;81.55;102601.22;5033807;28;20068;-64
2021/03/28 00:45:57;;;;;;;3.35;0.90;;;;;;;15.39;82.12;102600.38;5039447;28;20033;-63
2021/03/28 00:48:35;;;;;;;3.53;1.45;;;;;;;15.35;82.22;102598.75;5036156;28;20086;-63
2021/03/28 00:51:19;;;;;;;3.40;0.90;;;;;;;15.34;81.85;102597.03;5039724;28;20374;-63
2021/03/28 00:53:49;;;;;;;2.50;1.05;;;;;;;15.37;81.43;102596.06;5036738;28;20031;-65
2021/03/28 00:56:38;;;;;;;5.95;1.20;;;;;;;15.33;81.54;102589.97;5036152;28;20807;-64
2021/03/28 00:59:32;;;;;;;5.15;1.65;;;;;;;15.30;81.78;102582.06;5028928;28;20041;-63
2021/03/28 01:02:27;;;;;;;5.18;1.00;;;;;;;15.31;81.91;102585.59;5043204;28;20037;-64
2021/03/28 01:05:20;;;;;;;3.90;1.23;;;;;;;15.30;81.81;102582.06;5005803;28;20475;-62
2021/03/28 01:08:05;;;;;;;3.45;1.13;;;;;;;15.26;82.28;102580.44;5036795;28;20048;-63
2021/03/28 01:11:09;;;;;;;1.73;0.75;;;;;;;15.27;81.93;102579.53;5037491;28;20029;-65
2021/03/28 01:13:55;;;;;;;6.60;1.67;;;;;;;15.26;82.50;102581.34;5036546;28;20033;-65
2021/03/28 01:17:11;;;;;;;2.60;0.95;;;;;;;15.24;82.33;102575.16;5039064;28;20033;-65
2021/03/28 01:19:55;;;;;;;2.90;1.00;;;;;;;15.26;82.09;102565.34;5038660;28;20483;-66
2021/03/28 01:22:32;;;;;;;9.05;1.23;;;;;;;15.24;81.82;102566.31;5040044;28;20149;-66
2021/03/28 01:25:34;;;;;;;3.25;0.90;;;;;;;15.23;81.80;102562.78;5038694;28;20549;-64
2021/03/28 01:28:15;;;;;;;11.30;1.55;;;;;;;15.21;82.44;102555.75;5035862;28;20067;-63
2021/03/28 01:30:47;;;;;;;5.43;2.10;;;;;;;15.19;82.07;102554.97;5035265;28;20112;-64
2021/03/28 01:33:45;;;;;;;9.30;1.40;;;;;;;15.20;81.81;102552.22;5033421;28;20049;-64
2021/03/28 01:36:24;;;;;;;6.70;1.45;;;;;;;15.18;82.45;102556.75;5026132;28;20045;-64
2021/03/28 01:39:09;;;;;;;5.32;1.00;;;;;;;15.22;81.87;102546.88;5039869;28;20051;-64
2021/03/28 01:41:42;;;;;;;2.95;1.27;;;;;;;15.19;81.78;102552.31;5033461;28;20020;-65
2021/03/28 01:44:18;;;;;;;7.85;1.40;;;;;;;15.17;81.74;102547.03;5036622;28;20606;-64
2021/03/28 01:46:52;;;;;;;4.50;1.48;;;;;;;15.15;81.49;102554.19;5038948;28;20087;-64
2021/03/28 01:49:32;;;;;;;4.32;1.35;;;;;;;15.18;81.12;102550.56;5040882;28;20458;-65
2021/03/28 01:52:26;;;;;;;11.73;1.40;;;;;;;15.16;81.51;102544.41;5034757;28;20060;-65
2021/03/28 01:54:56;;;;;;;5.50;1.00;;;;;;;15.14;82.06;102548.94;5023948;28;20037;-65
2021/03/28 01:57:37;;;;;;;7.80;1.42;;;;;;;15.17;81.49;102544.38;5035509;28;20032;-65
2021/03/28 02:00:40;;;;;;;5.82;1.75;;;;;;;15.13;81.22;102548.06;5037940;28;20551;-65
2021/03/28 02:03:24;;;;;;;3.13;1.05;;;;;;;15.10;81.47;102544.63;5031937;28;20096;-65
2021/03/28 02:06:06;;;;;;;3.15;1.00;;;;;;;15.08;81.59;102552.69;5035031;28;20851;-65
2021/03/28 02:08:47;;;;;;;7.65;1.80;;;;;;;15.08;81.20;102544.72;5042702;28;20036;-65
2021/03/28 02:11:39;;;;;;;8.05;1.38;;;;;;;15.08;81.81;102550.03;5036850;28;20033;-64
2021/03/28 02:14:16;;;;;;;3.60;1.00;;;;;;;15.02;81.59;102544.94;5032780;28;20075;-65
2021/03/28 02:17:03;;;;;;;7.18;1.48;;;;;;;15.06;81.13;102543.91;5035453;28;20033;-65
2021/03/28 02:19:31;;;;;;;4.68;1.10;;;;;;;15.05;81.05;102536.81;5036959;28;20069;-65
2021/03/28 02:22:25;;;;;;;6.32;1.33;;;;;;;15.07;80.45;102536.78;5036986;28;20037;-64
2021/03/28 02:25:03;;;;;;;3.08;1.10;;;;;;;15.04;80.69;102527.09;5036538;28;20815;-64
2021/03/28 02:27:53;;;;;;;3.60;1.10;;;;;;;15.00;80.75;102531.66;5038404;28;20100;-64
2021/03/28 02:30:28;;;;;;;3.83;1.70;;;;;;;15.02;80.85;102540.47;5033698;28;20040;-65
2021/03/28 02:33:14;;;;;;;4.97;0.87;;;;;;;15.01;80.64;102536.09;5038095;28;20122;-64
2021/03/28 02:35:52;;;;;;;4.45;1.00;;;;;;;14.99;80.71;102532.59;5041650;28;20029;-64
2021/03/28 02:38:54;;;;;;;4.78;1.33;;;;;;;14.98;80.95;102525.53;5036163;28;20091;-64
2021/03/28 02:41:44;;;;;;;4.65;1.00;;;;;;;14.94;80.72;102517.69;5034306;28;20906;-64
2021/03/28 02:44:37;;;;;;;1.90;1.00;;;;;;;14.95;81.22;102516.78;5037163;28;20031;-64
2021/03/28 02:47:03;;;;;;;4.47;1.30;;;;;;;14.90;81.26;102519.59;5041869;28;20044;-64
2021/03/28 02:50:00;;;;;;;6.17;0.70;;;;;;;14.94;81.58;102523.91;5032649;28;20036;-64
2021/03/28 02:52:43;;;;;;;4.22;1.13;;;;;;;14.93;81.93;102530.16;5037303;28;20296;-64
2021/03/28 02:55:24;;;;;;;4.05;1.25;;;;;;;14.89;82.39;102525.00;5018322;28;20029;-64
2021/03/28 02:58:10;;;;;;;7.32;2.13;;;;;;;14.95;82.93;102527.41;5039918;28;20037;-64
2021/03/28 03:00:54;;;;;;;;;;;;;;;14.90;82.72;102522.25;5036874;28;20032;-64
2021/03/28 03:03:29;;;;;;;6.70;1.20;;;;;;;14.93;82.46;102515.97;5032884;28;19921;-65
2021/03/28 03:06:11;;;;;;;3.45;0.98;;;;;;;14.94;82.31;102515.03;5038356;28;20025;-65
2021/03/28 03:08:43;;;;;;;4.40;1.30;;;;;;;14.93;82.21;102511.50;5036386;28;20116;-65
2021/03/28 03:11:17;;;;;;;3.78;0.95;;;;;;;14.90;82.23;102518.72;5044724;28;20037;-67
2021/03/28 03:13:48;;;;;;;3.00;1.23;;;;;;;14.90;82.41;102522.25;5040509;28;20022;-63
2021/03/28 03:16:24;;;;;;;6.00;1.98;;;;;;;14.93;82.16;102516.84;5036175;28;20029;-64
2021/03/28 03:19:20;;;;;;;2.92;1.20;;;;;;;14.91;82.22;102507.16;5036438;28;20386;-64
2021/03/28 03:22:34;;;;;;;4.18;1.40;;;;;;;14.90;82.06;102511.63;5037462;28;20075;-64
2021/03/28 03:25:31;;;;;;;4.55;0.95;;;;;;;14.90;81.97;102508.09;5017876;28;20378;-64
2021/03/28 03:28:21;;;;;;;7.03;1.75;;;;;;;14.86;81.94;102507.34;5037108;28;20032;-64
2021/03/28 03:31:06;;;;;;;4.28;1.10;;;;;;;14.86;82.18;102509.13;5038342;28;20071;-65
2021/03/28 03:33:56;;;;;;;4.93;1.15;;;;;;;14.87;81.96;102503.75;5038939;28;20030;-64
2021/03/28 03:36:47;;;;;;;3.35;1.23;;;;;;;14.89;81.44;102504.56;5033891;28;20478;-64
2021/03/28 03:39:23;;;;;;;7.25;1.42;;;;;;;14.84;81.70;102503.84;5032378;28;20075;-64
2021/03/28 03:41:57;;;;;;;6.78;1.05;;;;;;;14.87;81.29;102505.56;5037669;28;20091;-64
2021/03/28 03:44:53;;;;;;;10.93;1.10;;;;;;;14.78;82.17;102504.09;5034543;28;20033;-64
2021/03/28 03:47:26;;;;;;;5.03;1.02;;;;;;;14.81;81.68;102501.31;5037523;28;20029;-64
2021/03/28 03:50:00;;;;;;;3.15;1.30;;;;;;;14.84;80.32;102503.00;5041421;28;20037;-64
2021/03/28 03:52:55;;;;;;;4.35;1.35;;;;;;;14.83;79.80;102502.13;5042835;28;20022;-64
2021/03/28 03:55:42;;;;;;;6.45;1.42;;;;;;;14.80;80.74;102502.22;5040538;28;20040;-64
2021/03/28 03:58:29;;;;;;;6.35;1.60;;;;;;;14.74;81.07;102511.28;5023097;28;20040;-64
2021/03/28 04:00:58;;;;;;;7.68;1.10;;;;;;;14.79;80.32;102507.59;5035616;28;20410;-64
2021/03/28 04:04:04;;;;;;;7.32;1.20;;;;;;;14.82;78.61;102507.50;5036024;28;20033;-64
2021/03/28 04:07:00;;;;;;;4.28;1.10;;;;;;;14.83;78.96;102509.25;5037339;28;20032;-64
2021/03/28 04:09:36;;;;;;;6.40;1.30;;;;;;;14.80;78.68;102504.00;5033810;28;20029;-64
2021/03/28 04:12:13;;;;;;;;;;;;;;;14.77;78.54;102503.22;5039025;28;20289;-64
2021/03/28 04:14:52;;;;;;;6.95;1.25;;;;;;;14.82;79.10;102508.38;5036395;28;20035;-64
2021/03/28 04:17:49;;;;;;;6.30;1.35;;;;;;;14.79;80.32;102512.94;5037030;28;20045;-63
2021/03/28 04:20:31;;;;;;;5.25;1.13;;;;;;;14.77;80.46;102507.66;5034147;28;20064;-64
2021/03/28 04:23:17;;;;;;;3.75;1.00;;;;;;;14.76;80.16;102511.25;5040979;28;20052;-64
2021/03/28 04:26:06;;;;;;;5.65;1.17;;;;;;;14.76;80.36;102513.94;5034979;28;20032;-64
2021/03/28 04:29:03;;;;;;;4.13;1.30;;;;;;;14.76;80.33;102508.59;5024429;28;20056;-63
2021/03/28 04:31:40;;;;;;;3.92;1.13;;;;;;;14.77;79.66;102510.34;5038599;28;20044;-64
2021/03/28 04:34:20;;;;;;;1.98;1.05;;;;;;;14.79;79.50;102510.28;5037499;28;20410;-63
2021/03/28 04:37:23;;;;;;;4.47;1.17;;;;;;;14.78;79.67;102506.75;5024701;28;20035;-64
2021/03/28 04:40:10;;;;;;;2.17;1.00;;;;;;;14.77;79.62;102507.66;5037735;28;20838;-64
2021/03/28 04:42:57;;;;;;;2.30;0.90;;;;;;;14.77;79.57;102507.66;5038381;28;20103;-64
2021/03/28 04:45:34;;;;;;;2.65;1.17;;;;;;;14.73;79.88;102512.22;5034324;28;20057;-64
2021/03/28 04:48:38;;;;;;;4.00;0.80;;;;;;;14.72;79.35;102502.50;5035304;28;20025;-64
2021/03/28 04:51:22;;;;;;;2.13;0.95;;;;;;;14.74;78.67;102505.97;5033563;28;20109;-64
2021/03/28 04:54:02;;;;;;;2.58;1.00;;;;;;;14.76;78.41;102524.56;5038879;28;20033;-64
2021/03/28 04:57:24;;;;;;;2.97;1.17;;;;;;;14.71;78.21;102508.75;5031252;28;20033;-65
2021/03/28 05:00:02;;;;;;;3.60;0.90;;;;;;;14.74;77.72;102510.44;4962737;28;20509;-65
2021/03/28 05:02:52;;;;;;;3.47;1.25;;;;;;;14.72;78.23;102505.16;4963860;28;20042;-63
2021/03/28 05:05:48;;;;;;;4.88;1.17;;;;;;;14.72;79.06;102505.16;5025272;28;20494;-63
2021/03/28 05:08:48;;;;;;;8.63;1.17;;;;;;;14.72;78.99;102496.31;5038525;28;20473;-63
2021/03/28 05:11:44;;;;;;;3.35;0.90;;;;;;;14.72;78.86;102483.00;5020884;28;20035;-64
2021/03/28 05:14:31;;;;;;;7.88;1.15;;;;;;;14.69;78.26;102480.44;5034212;28;20032;-63
2021/03/28 05:17:03;;;;;;;2.92;1.08;;;;;;;14.70;77.84;102487.50;5038339;28;20033;-63
2021/03/28 05:19:54;;;;;;;4.55;1.10;;;;;;;14.72;77.98;102485.69;5033302;28;20033;-62
2021/03/28 05:22:59;;;;;;;3.35;1.00;;;;;;;14.69;78.25;102478.66;5038218;28;20049;-62
2021/03/28 05:25:38;;;;;;;25.83;1.48;;;;;;;14.66;79.43;102483.22;5040206;28;20039;-64
2021/03/28 05:28:41;;;;;;;4.50;0.85;;;;;;;14.71;78.66;102478.63;5041402;28;20525;-63
2021/03/28 05:31:34;;;;;;;2.70;1.23;;;;;;;14.72;78.17;102483.88;5040876;28;20086;-63
2021/03/28 05:34:37;;;;;;;14.35;1.85;;;;;;;14.72;79.00;102483.88;5045475;28;20107;-64
2021/03/28 05:37:28;;;;;;;9.70;1.60;;;;;;;14.76;79.26;102484.66;5037658;28;20041;-64
2021/03/28 05:40:12;;;;;;;9.73;1.80;;;;;;;14.70;79.80;102477.72;5044080;28;20032;-63
2021/03/28 05:43:38;;;;;;;16.05;1.55;;;;;;;14.70;80.05;102472.41;5039181;28;20174;-63
2021/03/28 05:46:30;;;;;;;6.75;2.60;;;;;;;14.72;79.03;102470.56;4972016;28;20045;-62
2021/03/28 05:49:10;;;;;;;5.97;1.00;;;;;;;14.69;79.36;102478.66;4945720;28;20088;-62
2021/03/28 05:51:44;;;;;;;7.80;1.38;;;;;;;14.68;78.71;102478.72;4968200;28;20039;-63
2021/03/28 05:54:45;;;;;;;13.85;1.10;;;;;;;14.67;79.21;102469.88;4976113;28;20519;-63
2021/03/28 05:57:33;;;;;;;5.40;1.55;;;;;;;14.71;78.29;102476.81;4973262;28;20038;-63
2021/03/28 06:00:20;;;;;;;6.18;1.67;;;;;;;14.72;77.97;102478.56;4970572;28;20034;-64
2021/03/28 06:03:21;;;;;;;17.02;2.25;;;;;;;14.65;79.81;102479.69;4974389;28;20279;-63
2021/03/28 06:06:11;;;;;;;4.70;1.27;;;;;;;14.70;79.35;102480.38;4973819;28;20049;-64
2021/03/28 06:08:57;;;;;;;19.73;1.73;;;;;;;14.68;80.13;102479.59;4955302;28;20042;-64
2021/03/28 06:12:10;;;;;;;14.13;1.73;;;;;;;14.71;78.96;102474.16;4973011;28;20037;-64
2021/03/28 06:14:44;;;;;;;13.68;1.95;;;;;;;14.72;79.16;102475.91;4910291;29;20036;-64
2021/03/28 06:17:24;;;;;;;11.50;2.33;;;;;;;14.70;79.08;102472.41;4913456;29;20447;-64
2021/03/28 06:20:20;;;;;;;24.50;2.35;;;;;;;14.75;77.84;102483.75;4910098;29;20032;-65
2021/03/28 06:23:04;;;;;;;9.05;1.20;;;;;;;14.75;77.38;102490.88;4947432;28;20043;-64
2021/03/28 06:25:51;;;;;;;12.35;1.23;;;;;;;14.81;76.57;102492.44;4931677;29;20054;-64
2021/03/28 06:29:03;;;;;;;7.03;1.92;;;;;;;14.82;78.51;102494.19;4945222;28;20045;-65
2021/03/28 06:31:54;;;;;;;4.85;1.48;;;;;;;14.82;78.44;102491.53;4946947;28;20219;-63
2021/03/28 06:34:52;;;;;;;16.05;1.75;;;;;;;14.81;77.94;102500.44;4948192;28;20043;-63
2021/03/28 06:37:36;;;;;;;12.48;1.83;;;;;;;14.81;77.96;102503.97;4946447;28;20360;-64
2021/03/28 06:40:26;;;;;;;23.85;2.22;;;;;;;14.80;78.96;102501.34;4946194;28;20050;-65
2021/03/28 06:43:34;;;;;;;14.55;1.83;;;;;;;14.85;78.26;102502.06;4948859;28;21342;-66
2021/03/28 06:46:11;;;;;;;17.88;1.20;;;;;;;14.92;77.18;102512.44;4941538;28;20504;-64
2021/03/28 06:48:56;;;;;;;4.07;1.15;;;;;;;14.99;76.14;102497.97;4994409;28;20040;-64
2021/03/28 06:51:24;;;;;;;8.55;1.90;;;;;;;14.99;75.37;102502.44;5037082;28;20048;-65
2021/03/28 06:54:11;;;;;;;4.40;1.30;;;;;;;15.02;74.71;102497.00;5042451;28;20043;-65
2021/03/28 06:56:48;;;;;;;8.15;1.35;;;;;;;15.03;75.28;102504.94;5037970;28;20029;-64
2021/03/28 06:59:54;;;;;;;6.72;1.38;;;;;;;15.10;75.11;102504.69;5024843;28;20040;-65
2021/03/28 07:02:40;;;;;;;5.07;1.13;;;;;;;15.13;75.31;102508.13;5037640;28;20112;-68
2021/03/28 07:05:21;;;;;;;15.45;1.67;;;;;;;15.17;76.08;102504.44;5019147;28;20037;-64
2021/03/28 07:08:20;;;;;;;11.30;1.73;;;;;;;15.24;75.54;102507.72;5017830;28;20044;-65
2021/03/28 07:11:10;;;;;;;5.40;1.52;;;;;;;15.31;75.64;102511.00;5033999;28;20467;-65
2021/03/28 07:14:13;;;;;;;6.43;1.60;;;;;;;15.38;75.31;102516.06;5032154;28;20026;-66
2021/03/28 07:16:57;;;;;;;4.95;2.25;;;;;;;15.45;74.82;102520.22;5035761;28;20120;-69
2021/03/28 07:19:51;;;;;;;5.32;1.50;;;;;;;15.54;74.82;102513.69;5035512;28;20036;-65
2021/03/28 07:22:29;;;;;;;23.80;1.50;;;;;;;15.54;75.38;102516.34;5013952;28;20511;-65
2021/03/28 07:25:15;;;;;;;6.05;1.08;;;;;;;15.55;75.04;102515.41;5024836;28;20036;-65
2021/03/28 07:28:13;;;;;;;6.18;1.48;;;;;;;15.54;74.85;102525.19;5020418;28;20136;-65
2021/03/28 07:30:57;;;;;;;5.82;1.30;;;;;;;15.46;75.43;102510.41;5019991;28;20030;-66
2021/03/28 07:33:38;;;;;;;3.55;1.10;;;;;;;15.47;75.02;102512.19;5021958;28;20118;-65
2021/03/28 07:36:25;;;;;;;35.60;1.80;;;;;;;15.46;74.35;102507.75;5024043;28;20037;-65
2021/03/28 07:39:29;;;;;;;4.07;1.10;;;;;;;15.47;74.81;102515.72;5022809;28;20543;-66
2021/03/28 07:42:27;;;;;;;11.13;1.10;;;;;;;15.53;75.08;102512.81;5020777;28;20033;-58
2021/03/28 07:45:14;;;;;;;10.95;3.50;;;;;;;11.54;71.99;102518.59;5026185;28;20029;-75
2021/03/28 07:48:17;;;;;;;17.05;3.65;;;;;;;10.02;82.15;102516.09;5011776;28;20045;-74
2021/03/28 07:51:09;;;;;;;29.60;4.47;;;;;;;9.37;92.03;102524.97;5023797;28;20048;-74
2021/03/28 07:54:08;;;;;;;13.57;3.55;;;;;;;9.41;95.39;102521.41;5027942;28;20029;-74
2021/03/28 07:57:12;;;;;;;16.02;3.88;;;;;;;9.57;96.28;102526.44;5031371;28;20573;-74
2021/03/28 07:59:55;;;;;;;15.18;3.70;;;;;;;9.55;97.30;102535.28;5034644;28;20060;-74
2021/03/28 08:02:52;;;;;;;13.45;3.72;;;;;;;9.75;97.74;102524.47;5028948;28;20744;-74
2021/03/28 08:05:44;;;;;;;16.50;3.67;;;;;;;9.74;97.57;102520.03;5032444;28;20116;-74
2021/03/28 08:08:46;;;;;;;16.92;4.10;;;;;;;9.84;97.37;102524.34;5031224;28;20533;-74
2021/03/28 08:11:43;;;;;;;15.73;3.72;;;;;;;10.06;96.71;102524.88;5018056;28;20037;-74
2021/03/28 08:14:41;;;;;;;20.75;4.35;;;;;;;10.19;93.45;102523.78;5028374;28;21603;-74
2021/03/28 08:17:22;;;;;;;12.18;2.97;;;;;;;10.37;91.09;102520.00;5026104;28;20033;-74
2021/03/28 08:20:22;;;;;;;18.27;3.53;;;;;;;10.53;87.68;102512.66;5021112;28;20491;-74
2021/03/28 08:23:30;;;;;;;36.22;3.60;;;;;;;10.14;86.31;102533.56;5025219;28;20064;-74
2021/03/28 08:26:33;;;;;;;27.92;4.05;;;;;;;10.31;85.76;102514.81;5035111;28;20467;-73
2021/03/28 08:29:16;;;;;;;11.27;3.10;;;;;;;10.50;85.28;102508.31;5032274;28;20353;-74
2021/03/28 08:32:10;;;;;;;21.90;2.83;;;;;;;10.27;83.96;102523.69;5032214;28;20032;-74
2021/03/28 08:34:59;;;;;;;25.67;3.42;;;;;;;10.24;83.68;102519.34;5032707;28;20031;-73
2021/03/28 08:37:33;;;;;;;44.83;5.80;;;;;;;10.04;84.42;102548.69;5017789;28;20037;-74
2021/03/28 08:40:27;;;;;;;36.53;4.18;;;;;;;10.17;83.64;102509.72;5033743;28;20041;-73
2021/03/28 08:43:41;;;;;;;19.92;2.67;;;;;;;10.20;80.88;102533.47;5031115;28;20569;-74
2021/03/28 08:46:12;;;;;;;20.35;3.38;;;;;;;10.21;82.57;102518.47;5038154;28;20055;-74
2021/03/28 08:48:43;;;;;;;33.33;4.20;;;;;;;10.27;82.37;102511.34;5036970;28;20025;-73
2021/03/28 08:51:27;;;;;;;27.08;4.85;;;;;;;10.40;82.81;102506.72;5035846;28;20069;-73
2021/03/28 08:54:20;;;;;;;14.98;3.15;;;;;;;10.10;82.62;102513.38;5035971;28;20039;-74
2021/03/28 08:57:07;;;;;;;34.95;3.63;;;;;;;10.08;83.73;102533.63;5035483;28;20033;-74
2021/03/28 08:59:45;;;;;;;29.42;4.38;;;;;;;10.06;84.73;102520.47;5034631;28;20037;-73
2021/03/28 09:02:35;;;;;;;22.23;4.07;;;;;;;10.21;83.99;102524.63;5036183;28;20158;-73
2021/03/28 09:05:28;;;;;;;36.83;4.70;;;;;;;10.25;83.39;102536.06;5035396;28;20060;-74
2021/03/28 09:08:18;;;;;;;21.80;4.25;;;;;;;10.42;80.33;102522.56;5036245;28;20028;-74
2021/03/28 09:11:22;;;;;;;44.22;5.05;;;;;;;10.35;80.34;102522.66;5032745;28;20039;-74
2021/03/28 09:14:12;;;;;;;29.85;4.45;;;;;;;10.52;78.52;102546.16;5022196;28;20029;-74
2021/03/28 09:17:19;;;;;;;93.22;7.47;;;;;;;10.54;76.09;102533.81;5028847;28;20095;-74
2021/03/28 09:20:03;;;;;;;22.97;3.40;;;;;;;10.81;74.99;102548.28;5033417;28;20038;-74
2021/03/28 09:23:19;;;;;;;37.40;5.07;;;;;;;10.70;75.36;102541.47;5031226;28;20089;-74
2021/03/28 09:26:02;;;;;;;35.42;4.28;;;;;;;10.79;73.94;102543.91;4993402;28;20578;-74
2021/03/28 09:28:48;;;;;;;50.70;5.25;;;;;;;10.94;72.50;102556.84;5021421;28;20068;-74
2021/03/28 09:31:31;;;;;;;36.63;4.28;;;;;;;11.04;72.77;102545.19;5037602;28;20078;-75
2021/03/28 09:34:27;;;;;;;47.17;6.18;;;;;;;11.05;71.41;102531.09;5043111;28;20040;-75
2021/03/28 09:36:58;;;;;;;48.67;7.55;;;;;;;10.93;70.82;102543.69;5038819;28;20028;-75
2021/03/28 09:39:29;;;;;;;42.08;5.55;;;;;;;11.40;70.25;102546.25;5042145;28;20025;-75
2021/03/28 09:42:30;;;;;;;61.30;4.70;;;;;;;11.11;70.42;102551.28;5037104;28;20094;-75
2021/03/28 09:45:49;;;;;;;18.77;3.10;;;;;;;11.34;70.93;102569.31;5040527;28;20040;-74
2021/03/28 09:48:26;;;;;;;20.38;3.47;;;;;;;11.35;69.54;102565.81;4979653;28;20061;-74
2021/03/28 09:51:05;;;;;;;40.42;5.28;;;;;;;11.29;69.28;102544.72;4975835;28;20097;-74
2021/03/28 09:53:56;;;;;;;60.63;5.38;;;;;;;11.10;70.45;102571.56;4972428;28;20096;-74
2021/03/28 09:56:43;;;;;;;90.05;7.50;;;;;;;11.02;70.56;102552.31;4977832;28;20043;-74
2021/03/28 09:59:33;;;;;;;18.52;2.67;;;;;;;11.09;69.53;102561.88;4976383;28;20453;-74
2021/03/28 10:02:37;;;;;;;12.10;2.90;;;;;;;11.06;70.55;102545.19;4977914;28;20052;-74
2021/03/28 10:05:26;;;;;;;39.38;3.55;;;;;;;11.18;70.49;102552.00;4983979;28;20038;-74
2021/03/28 10:08:16;;;;;;;39.60;3.55;;;;;;;11.49;69.59;102549.59;4984018;28;20038;-74
2021/03/28 10:11:15;;;;;;;37.42;4.18;;;;;;;11.44;69.40;102557.63;4981028;28;20046;-74
2021/03/28 10:14:07;;;;;;;44.97;5.43;;;;;;;11.45;70.04;102562.06;4983697;28;20104;-73
2021/03/28 10:17:05;;;;;;;25.70;3.42;;;;;;;11.46;69.78;102547.91;4979673;28;20173;-73
2021/03/28 10:19:39;;;;;;;25.50;3.45;;;;;;;11.34;71.77;102577.25;4977401;28;20516;-74
2021/03/28 10:22:17;;;;;;;26.40;3.45;;;;;;;11.17;71.91;102574.09;4991033;28;20504;-74
2021/03/28 10:25:17;;;;;;;47.47;4.90;;;;;;;11.22;72.25;102570.44;5031549;28;20444;-74
2021/03/28 10:28:19;;;;;;;26.08;3.40;;;;;;;11.20;72.64;102569.63;5035611;28;20021;-74
2021/03/28 10:31:09;;;;;;;34.90;4.70;;;;;;;11.06;73.51;102563.72;5032061;28;20057;-74
2021/03/28 10:34:01;;;;;;;29.92;3.08;;;;;;;11.08;74.85;102575.13;5034369;28;20037;-74
2021/03/28 10:36:41;;;;;;;30.10;3.72;;;;;;;11.04;73.91;102584.88;5032067;28;20021;-74
2021/03/28 10:39:24;;;;;;;36.30;4.50;;;;;;;11.01;74.84;102592.91;5033968;28;20100;-74
2021/03/28 10:42:27;;;;;;;19.08;2.95;;;;;;;11.24;75.67;102594.22;5028039;28;20037;-74
2021/03/28 10:45:26;;;;;;;27.45;3.63;;;;;;;11.19;74.57;102574.91;5033168;28;20035;-74
2021/03/28 10:48:41;;;;;;;32.90;3.78;;;;;;;11.07;74.76;102597.22;5033707;28;20549;-74
2021/03/28 10:51:44;;;;;;;18.35;2.80;;;;;;;10.95;76.49;102611.53;5001779;28;20487;-74
2021/03/28 10:54:27;;;;;;;22.38;4.00;;;;;;;11.18;76.96;102591.72;5034709;28;20045;-73
2021/03/28 10:57:30;;;;;;;17.75;3.53;;;;;;;11.15;76.09;102585.59;5033560;28;20132;-73
2021/03/28 11:00:26;;;;;;;10.57;3.00;;;;;;;11.33;76.21;102589.63;5036860;28;20490;-74
2021/03/28 11:03:28;;;;;;;21.90;4.40;;;;;;;11.22;76.21;102573.09;5031916;28;20057;-74
2021/03/28 11:06:23;;;;;;;28.45;6.40;;;;;;;11.28;76.26;102591.50;5028748;28;20040;-74
2021/03/28 11:09:14;;;;;;;16.58;3.15;;;;;;;11.25;76.00;102570.41;5031671;28;20025;-74
2021/03/28 11:12:06;;;;;;;13.70;3.78;;;;;;;11.43;75.68;102584.16;5031699;28;20033;-73
2021/03/28 11:15:11;;;;;;;16.63;3.05;;;;;;;11.32;74.99;102590.53;5037331;28;20538;-73
2021/03/28 11:17:53;;;;;;;28.98;4.65;;;;;;;11.18;74.54;102589.94;5032217;28;20036;-75
2021/03/28 11:20:24;;;;;;;19.63;2.92;;;;;;;11.24;74.91;102596.88;5023835;28;20095;-74
2021/03/28 11:23:07;;;;;;;16.65;3.25;;;;;;;11.09;74.47;102592.75;5037941;28;20581;-74
2021/03/28 11:25:55;;;;;;;24.77;3.05;;;;;;;11.18;73.88;102597.00;5035875;28;20552;-74
2021/03/28 11:28:52;;;;;;;33.08;6.15;;;;;;;11.30;72.59;102592.34;5034987;28;20047;-74
2021/03/28 11:31:26;;;;;;;32.95;4.32;;;;;;;11.56;71.73;102577.72;5040043;28;20575;-75
2021/03/28 11:34:21;;;;;;;31.17;4.85;;;;;;;11.89;70.00;102576.13;5035796;28;20033;-74
2021/03/28 11:37:37;;;;;;;33.78;5.32;;;;;;;11.95;68.49;102578.66;5034146;28;20095;-73
2021/03/28 11:40:17;;;;;;;10.25;2.70;;;;;;;12.01;69.61;102580.31;5030113;28;20132;-73
2021/03/28 11:42:51;;;;;;;24.20;3.28;;;;;;;11.93;68.21;102576.03;5042884;28;20124;-74
2021/03/28 11:45:32;;;;;;;24.65;2.95;;;;;;;11.99;68.90;102588.25;5039275;28;20460;-73
2021/03/28 11:47:58;;;;;;;24.83;3.10;;;;;;;12.00;69.07;102578.53;5038846;28;20037;-74
2021/03/28 11:50:23;;;;;;;40.03;4.43;;;;;;;12.14;68.14;102579.09;5038285;28;20099;-73
2021/03/28 11:52:51;;;;;;;26.33;3.85;;;;;;;12.17;68.38;102571.09;5036510;28;20473;-75
2021/03/28 11:55:38;;;;;;;89.25;7.60;;;;;;;12.05;68.78;102574.00;5038055;28;20025;-75
2021/03/28 11:58:12;;;;;;;65.28;7.55;;;;;;;11.99;68.92;102579.44;5025879;28;20029;-74
2021/03/28 12:00:44;;;;;;;38.60;4.45;;;;;;;12.07;68.43;102604.88;5034590;28;20025;-74
2021/03/28 12:03:23;;;;;;;34.67;4.43;;;;;;;12.08;68.39;102627.81;5031716;28;20091;-69
2021/03/28 12:06:10;;;;;;;25.95;3.00;;;;;;;12.19;68.29;102591.31;5033091;28;20068;-69
2021/03/28 12:08:45;;;;;;;27.80;2.97;;;;;;;12.49;67.38;102580.91;5035608;28;20095;-70
2021/03/28 12:11:38;;;;;;;29.75;3.72;;;;;;;12.35;67.90;102578.59;5033394;28;20065;-69
2021/03/28 12:14:12;;;;;;;35.55;5.82;;;;;;;12.27;67.92;102577.91;5038449;28;20036;-69
2021/03/28 12:17:08;;;;;;;31.65;3.47;;;;;;;12.29;67.80;102567.25;5033592;28;20463;-69
2021/03/28 12:19:42;;;;;;;14.33;2.80;;;;;;;12.74;66.53;102565.22;5038294;28;20029;-69
2021/03/28 12:22:38;;;;;;;17.67;4.25;;;;;;;12.42;67.21;102572.22;5037566;28;20285;-70
2021/03/28 12:25:13;;;;;;;37.92;4.40;;;;;;;12.28;68.81;102570.81;5035886;28;20418;-69
2021/03/28 12:27:56;;;;;;;15.85;3.35;;;;;;;12.43;68.59;102565.13;5037382;28;20116;-69
2021/03/28 12:30:34;;;;;;;23.13;3.28;;;;;;;12.43;67.68;102563.34;5027374;28;20406;-70
2021/03/28 12:33:43;;;;;;;34.55;4.93;;;;;;;12.62;68.16;102557.59;5031320;28;20048;-69
2021/03/28 12:36:10;;;;;;;28.17;3.47;;;;;;;12.54;67.12;102571.03;5036846;28;20033;-69
2021/03/28 12:38:45;;;;;;;75.97;6.88;;;;;;;12.45;68.42;102592.50;5037181;28;20029;-70
2021/03/28 12:41:13;;;;;;;56.15;5.70;;;;;;;12.52;68.29;102583.47;5037291;28;20024;-69
2021/03/28 12:44:07;;;;;;;44.33;4.57;;;;;;;12.76;66.89;102589.09;5030028;28;20033;-69
2021/03/28 12:46:35;;;;;;;36.92;4.50;;;;;;;12.42;67.98;102627.06;5001197;28;20418;-69
2021/03/28 12:49:10;;;;;;;41.25;4.07;;;;;;;12.33;68.87;102604.25;5025470;28;20550;-69
2021/03/28 12:51:41;;;;;;;28.38;4.32;;;;;;;12.04;70.42;102604.94;5038498;28;20017;-69
2021/03/28 12:54:29;;;;;;;17.67;3.35;;;;;;;12.02;70.95;102603.25;5037810;28;20026;-70